Nearby METAR Reports

 

K6I2 - Springfield, Kentucky, USA
Distance from station: SSE 22mi, 36km
Updated: 04/17/2024 8:35pm
Clear
Clear
 Wind from S
Wind: S 12 mph, 19 km/h, Gust: 16 mph, 26 km/h
Temperature: 72°F, 22°C
Dew Point: 63°F, 17°C
Humidity: 73%
Barometer: 29.93 inHg, 1013.5 hPa
Clouds: Clear
Visibility: 10 miles, 16 km
2024/04/18 00:35 K6I2 180035Z AUTO 19010G14KT 10SM CLR 22/17 A2993 RMK AO2
KLOU - Louisville/Bowmn, Kentucky, USA
Distance from station: NW 25mi, 40km
Updated: 04/17/2024 7:53pm
Clear
Clear
 Wind from W
Wind: W 7 mph, 11 km/h, Gust: 21 mph, 33 km/h
Temperature: 77°F, 25°C
Dew Point: 46°F, 8°C
Humidity: 34%
Barometer: 29.86 inHg, 1011.2 hPa
Clouds: Clear
Visibility: 10 miles, 16 km
2024/04/17 23:53 KLOU 172353Z 26006G18KT 10SM CLR 25/08 A2986 RMK AO2 PK WND 25027/2259 SLP106 T02500083 10278 20250 51021
 
KSDF - Louisville, Kentucky, USA
Distance from station: NW 25mi, 41km
Updated: 04/17/2024 7:56pm
Few Clouds
Few Clouds
 Wind from WSW
Wind: WSW 12 mph, 19 km/h
Temperature: 81°F, 27°C
Dew Point: 45°F, 7°C
Humidity: 28%
Barometer: 29.86 inHg, 1011.2 hPa
Clouds: Few Clouds
Visibility: 10 miles, 16 km
Cloud details: Few Clouds 6000 ft
Few Clouds 30000 ft
2024/04/17 23:56 KSDF 172356Z 25010KT 10SM FEW060 FEW300 27/07 A2986 RMK AO2 PK WND 25026/2300 SLP107 T02670072 10294 20267 51021
KEKX - Elizabeth, Kentucky, USA
Distance from station: WSW 30mi, 48km
Updated: 04/17/2024 8:35pm
Clear
Clear
 Wind from WSW
Wind: WSW 5 mph, 7 km/h
Temperature: 73°F, 23°C
Dew Point: 48°F, 9°C
Humidity: 41%
Barometer: 29.91 inHg, 1012.9 hPa
Clouds: Clear
Visibility: 10 miles, 16 km
2024/04/18 00:35 KEKX 180035Z AUTO 25004KT 10SM CLR 23/09 A2991 RMK AO2 T02280086
 
KFFT - Frankfort, Kentucky, USA
Distance from station: NE 32mi, 51km
Updated: 04/17/2024 7:53pm
Clear
Clear
 Wind from WSW
Wind: WSW 8 mph, 13 km/h
Temperature: 79°F, 26°C
Dew Point: 45°F, 7°C
Humidity: 30%
Barometer: 29.87 inHg, 1011.5 hPa
Clouds: Clear
Visibility: 10 miles, 16 km
2024/04/17 23:53 KFFT 172353Z AUTO 25007KT 10SM CLR 26/07 A2987 RMK AO2 SLP106 T02560072 10272 20239 53017
KFTK - Fort Knox/Godman, Kentucky, USA
Distance from station: W 32mi, 51km
Updated: 04/17/2024 9:55am
NOT Current
Mostly cloudy
Mostly cloudy
 Wind from S
Wind: S 15 mph, 24 km/h, Gust: 26 mph, 43 km/h
Temperature: 70°F, 21°C
Dew Point: 63°F, 17°C
Humidity: 78%
Barometer: 29.87 inHg, 1011.5 hPa
Clouds: Mostly cloudy
Visibility: 10 miles, 16 km
Cloud details: Mostly cloudy 1700 ft
Mostly cloudy 2400 ft
2024/04/17 13:55 KFTK 171355Z AUTO 19013G23KT 10SM BKN017 BKN024 21/17 A2987 RMK AO2 SLP111 T02120174 $
 
KDVK - Danville, Kentucky, USA
Distance from station: SE 42mi, 67km
Updated: 04/17/2024 8:35pm
Clear
Clear
 Wind from SW
Wind: SW 8 mph, 13 km/h
Temperature: 70°F, 21°C
Dew Point: 61°F, 16°C
Humidity: 73%
Barometer: 29.95 inHg, 1014.2 hPa
Clouds: Clear
Visibility: 10 miles, 16 km
2024/04/18 00:35 KDVK 180035Z AUTO 22007KT 10SM CLR 21/16 A2995 RMK AO2
KLEX - Lexington, Kentucky, USA
Distance from station: E 43mi, 70km
Updated: 04/17/2024 7:54pm
Few Clouds
Few Clouds
 Wind from SW
Wind: SW 13 mph, 20 km/h
Temperature: 75°F, 24°C
Dew Point: 61°F, 16°C
Humidity: 61%
Barometer: 29.88 inHg, 1011.9 hPa
Clouds: Few Clouds
Visibility: 10 miles, 16 km
Cloud details: Few Clouds 8500 ft
2024/04/17 23:54 KLEX 172354Z 22011KT 10SM FEW085 24/16 A2988 RMK AO2 SLP111 T02390161 10261 20239 53013